Time;durP1;ratioP1;P1;durP2;ratioP2;P2;SDS_P1;SDS_P2;PMS_P1;PMS_P2;Temp;Humidity;BMP_temperature;BMP_pressure;BME280_temperature;BME280_humidity;BME280_pressure;Samples;Min_cycle;Max_cycle;Signal;HPM_P1;HPM_P2
2021/11/07 00:07:10;;;;;;;3.23;2.93;;;12.20;97.60;;;;;;6156758;23;20717;-82
2021/11/07 00:12:15;;;;;;;3.00;2.70;;;12.00;97.90;;;;;;6154409;23;20409;-84
2021/11/07 00:14:47;;;;;;;2.93;2.70;;;12.10;98.10;;;;;;6132343;23;20435;-82
2021/11/07 00:17:17;;;;;;;2.50;2.30;;;12.10;97.80;;;;;;6157537;23;20433;-82
2021/11/07 00:19:50;;;;;;;3.07;2.47;;;12.10;97.90;;;;;;6127947;23;20738;-84
2021/11/07 00:25:00;;;;;;;2.80;2.20;;;12.10;97.80;;;;;;6154317;23;20410;-82
2021/11/07 00:30:27;;;;;;;3.07;2.77;;;12.00;98.00;;;;;;6142561;23;20428;-82
2021/11/07 00:33:12;;;;;;;3.90;2.90;;;12.00;98.10;;;;;;6129129;23;20401;-84
2021/11/07 00:38:34;;;;;;;3.47;2.17;;;12.20;98.00;;;;;;6147685;23;20431;-83
2021/11/07 00:41:15;;;;;;;2.47;2.27;;;12.20;97.90;;;;;;6164946;23;20433;-85
2021/11/07 00:43:49;;;;;;;3.03;2.60;;;12.20;97.90;;;;;;6128504;23;20882;-84
2021/11/07 00:46:38;;;;;;;3.67;2.20;;;12.20;98.10;;;;;;6124783;23;20509;-84
2021/11/07 00:49:11;;;;;;;3.47;2.50;;;12.20;97.90;;;;;;6154469;23;20434;-83
2021/11/07 00:51:47;;;;;;;3.17;2.07;;;12.20;98.00;;;;;;6154337;23;21129;-84
2021/11/07 00:57:39;;;;;;;3.23;2.10;;;12.20;98.20;;;;;;6151876;23;20473;-86
2021/11/07 01:00:03;;;;;;;2.30;2.10;;;12.20;98.30;;;;;;6145936;23;20622;-85
2021/11/07 01:02:33;;;;;;;2.30;1.97;;;12.20;98.10;;;;;;6154219;23;20422;-85
2021/11/07 01:05:09;;;;;;;2.90;1.83;;;12.10;98.20;;;;;;6128901;23;20512;-84
2021/11/07 01:13:03;;;;;;;3.20;2.30;;;12.30;98.00;;;;;;6144083;23;20493;-85
2021/11/07 01:15:39;;;;;;;4.17;2.10;;;12.40;97.90;;;;;;6154624;23;20441;-83
2021/11/07 01:18:18;;;;;;;1.70;1.60;;;12.40;98.00;;;;;;6126416;23;20428;-82
2021/11/07 01:20:52;;;;;;;2.20;2.00;;;12.20;98.20;;;;;;6128200;23;20422;-83
2021/11/07 01:23:43;;;;;;;1.97;1.70;;;12.10;98.60;;;;;;6124483;23;20787;-84
2021/11/07 01:31:52;;;;;;;2.83;2.43;;;12.30;99.90;;;;;;6154646;23;20420;-85
2021/11/07 01:34:48;;;;;;;4.60;2.73;;;12.50;99.90;;;;;;6128338;23;21379;-83
2021/11/07 01:37:38;;;;;;;3.40;3.10;;;12.40;99.90;;;;;;6129988;23;20448;-84
2021/11/07 01:42:42;;;;;;;3.37;2.93;;;12.20;99.90;;;;;;6179678;23;20402;-86
2021/11/07 01:45:29;;;;;;;4.77;2.80;;;12.20;99.90;;;;;;6183141;23;20419;-85
2021/11/07 01:48:06;;;;;;;4.23;3.30;;;12.20;99.90;;;;;;6177904;23;20485;-84
2021/11/07 01:50:39;;;;;;;4.10;3.00;;;12.20;99.90;;;;;;6157119;23;20866;-86
2021/11/07 01:55:57;;;;;;;4.53;3.00;;;12.20;99.90;;;;;;6158837;23;20442;-86
2021/11/07 01:58:28;;;;;;;2.80;2.50;;;12.00;99.90;;;;;;6129224;23;20890;-84
2021/11/07 02:00:56;;;;;;;6.10;2.63;;;12.20;99.90;;;;;;6134396;23;20415;-86
2021/11/07 02:03:23;;;;;;;2.70;2.00;;;12.00;99.90;;;;;;6131896;23;20406;-84
2021/11/07 02:05:51;;;;;;;7.40;1.90;;;12.30;99.90;;;;;;6130335;23;20415;-85
2021/11/07 02:08:20;;;;;;;4.00;2.23;;;12.30;99.90;;;;;;6127905;23;20517;-84
2021/11/07 02:10:49;;;;;;;1.73;1.63;;;12.20;99.90;;;;;;6156956;23;20418;-83
2021/11/07 02:13:16;;;;;;;6.83;1.73;;;12.30;99.90;;;;;;6129405;23;20456;-84
2021/11/07 02:15:45;;;;;;;2.37;1.37;;;12.30;99.90;;;;;;6140689;23;20445;-83
2021/11/07 02:18:11;;;;;;;1.50;1.03;;;12.20;99.90;;;;;;6141875;23;20428;-83
2021/11/07 02:21:03;;;;;;;1.37;1.23;;;12.00;99.90;;;;;;6140680;23;20753;-85
2021/11/07 02:23:52;;;;;;;3.03;1.23;;;12.10;99.90;;;;;;6130542;23;20735;-84
2021/11/07 02:26:20;;;;;;;1.00;0.90;;;12.10;99.90;;;;;;6129962;23;20436;-84
2021/11/07 02:28:52;;;;;;;1.20;1.00;;;11.90;99.90;;;;;;6156634;23;20962;-86
2021/11/07 02:31:19;;;;;;;1.33;1.00;;;11.80;99.90;;;;;;6131598;23;20419;-85
2021/11/07 02:33:47;;;;;;;1.70;0.90;;;11.80;99.90;;;;;;6155220;23;20417;-84
2021/11/07 02:36:17;;;;;;;2.40;1.10;;;11.90;99.90;;;;;;6156662;23;20534;-84
2021/11/07 02:38:45;;;;;;;1.20;0.90;;;11.90;99.90;;;;;;6159851;23;20778;-84
2021/11/07 02:41:31;;;;;;;2.50;1.03;;;11.90;99.90;;;;;;6174482;23;20618;-82
2021/11/07 02:44:00;;;;;;;2.80;1.00;;;12.30;99.90;;;;;;6179045;23;20417;-87
2021/11/07 02:47:16;;;;;;;2.03;1.10;;;12.20;99.90;;;;;;6179437;23;20406;-84
2021/11/07 02:50:05;;;;;;;0.87;0.87;;;12.10;99.90;;;;;;6123594;23;20423;-86
2021/11/07 02:52:50;;;;;;;0.80;0.80;;;11.90;99.90;;;;;;6156195;23;20396;-85
2021/11/07 02:55:20;;;;;;;1.20;0.70;;;11.80;99.90;;;;;;6156653;23;20442;-84
2021/11/07 02:58:24;;;;;;;2.33;1.03;;;11.80;99.90;;;;;;6068040;23;20431;-85
2021/11/07 03:01:01;;;;;;;1.70;1.10;;;11.70;99.90;;;;;;6146348;23;20411;-84
2021/11/07 03:03:36;;;;;;;1.00;0.97;;;11.80;99.90;;;;;;6128784;23;20418;-84
2021/11/07 03:06:30;;;;;;;1.43;1.17;;;11.80;99.90;;;;;;6126797;23;20407;-85
2021/11/07 03:09:21;;;;;;;1.73;0.70;;;12.10;99.90;;;;;;6155184;23;20521;-84
2021/11/07 03:11:53;;;;;;;1.43;0.90;;;11.90;99.90;;;;;;6128069;23;20450;-84
2021/11/07 03:15:16;;;;;;;1.63;1.10;;;11.90;99.90;;;;;;6125577;23;21069;-84
2021/11/07 03:18:27;;;;;;;1.13;0.97;;;11.80;99.90;;;;;;6127696;23;20447;-85
2021/11/07 03:20:57;;;;;;;3.20;1.10;;;11.90;99.90;;;;;;6130311;23;20419;-86
2021/11/07 03:23:31;;;;;;;0.90;0.90;;;11.90;99.90;;;;;;6126998;23;20421;-86
2021/11/07 03:26:14;;;;;;;1.13;0.83;;;11.90;99.90;;;;;;6128833;23;20613;-85
2021/11/07 03:28:46;;;;;;;1.90;0.90;;;11.80;99.90;;;;;;6127711;23;20424;-85
2021/11/07 03:33:55;;;;;;;1.27;1.17;;;11.80;99.90;;;;;;6152930;23;20466;-85
2021/11/07 03:36:50;;;;;;;1.00;0.80;;;11.90;99.90;;;;;;6152220;23;20437;-85
2021/11/07 03:39:18;;;;;;;4.07;1.10;;;11.80;99.90;;;;;;6124647;23;20512;-85
2021/11/07 03:41:46;;;;;;;1.53;1.27;;;11.70;99.90;;;;;;6125581;23;20414;-84
2021/11/07 03:44:15;;;;;;;0.97;0.70;;;11.70;99.90;;;;;;6125743;23;20405;-84
2021/11/07 03:46:53;;;;;;;1.53;0.87;;;11.80;99.90;;;;;;6152872;23;20415;-85
2021/11/07 03:49:28;;;;;;;1.53;0.90;;;11.70;99.90;;;;;;6127338;23;20397;-83
2021/11/07 03:51:55;;;;;;;0.70;0.70;;;11.70;99.90;;;;;;6125945;23;20428;-84
2021/11/07 03:54:23;;;;;;;1.20;1.10;;;11.70;99.90;;;;;;6151767;23;21027;-85
2021/11/07 03:56:49;;;;;;;3.67;1.00;;;11.80;99.90;;;;;;6151950;23;20454;-83
2021/11/07 03:59:16;;;;;;;0.97;0.97;;;11.90;99.90;;;;;;6125946;23;20431;-85
2021/11/07 04:02:02;;;;;;;0.90;0.90;;;11.80;99.90;;;;;;6126942;23;20414;-84
2021/11/07 04:04:39;;;;;;;1.10;1.00;;;11.80;99.90;;;;;;6125899;23;20922;-85
2021/11/07 04:07:06;;;;;;;1.60;0.97;;;11.80;99.90;;;;;;6152883;23;20666;-83
2021/11/07 04:09:33;;;;;;;0.80;0.80;;;11.90;99.90;;;;;;6147806;23;20769;-87
2021/11/07 04:12:01;;;;;;;1.30;1.07;;;11.90;99.90;;;;;;6151546;23;20418;-83
2021/11/07 04:14:33;;;;;;;1.33;0.73;;;11.80;99.90;;;;;;6125224;23;20408;-84
2021/11/07 04:17:07;;;;;;;0.93;0.70;;;11.80;99.90;;;;;;6125768;23;20430;-86
2021/11/07 04:19:35;;;;;;;0.80;0.80;;;11.90;99.90;;;;;;6126380;23;20824;-84
2021/11/07 04:22:05;;;;;;;1.00;1.00;;;12.00;99.90;;;;;;6126203;23;20641;-83
2021/11/07 04:24:32;;;;;;;1.27;0.70;;;11.90;99.90;;;;;;6152082;23;20409;-84
2021/11/07 04:27:00;;;;;;;0.87;0.87;;;11.90;99.90;;;;;;6058329;23;21042;-85
2021/11/07 04:29:31;;;;;;;0.90;0.90;;;11.90;99.90;;;;;;6115886;23;20406;-86
2021/11/07 04:31:59;;;;;;;1.97;0.90;;;11.90;99.90;;;;;;6157769;23;20421;-88
2021/11/07 04:34:26;;;;;;;1.00;1.00;;;11.90;99.90;;;;;;6157500;23;21001;-84
2021/11/07 04:36:53;;;;;;;1.70;1.60;;;11.90;99.90;;;;;;6129979;23;20537;-85
2021/11/07 04:39:22;;;;;;;1.43;1.33;;;11.90;99.90;;;;;;6129136;23;20413;-88
2021/11/07 04:41:50;;;;;;;1.77;1.30;;;11.90;99.90;;;;;;6127857;23;20422;-84
2021/11/07 04:44:17;;;;;;;1.47;0.80;;;11.90;99.90;;;;;;6125098;23;20435;-87
2021/11/07 04:46:43;;;;;;;1.43;1.33;;;11.90;99.90;;;;;;6153644;23;20444;-87
2021/11/07 04:49:10;;;;;;;1.17;1.07;;;11.90;99.90;;;;;;6126089;23;21414;-86
2021/11/07 04:51:37;;;;;;;2.30;1.40;;;12.10;99.90;;;;;;6152526;23;20410;-86
2021/11/07 04:54:03;;;;;;;1.50;1.40;;;12.00;99.90;;;;;;6123538;23;20988;-85
2021/11/07 04:56:30;;;;;;;1.73;1.50;;;11.90;99.90;;;;;;6126849;23;20443;-87
2021/11/07 04:58:57;;;;;;;1.60;1.50;;;11.90;99.90;;;;;;6126475;23;20487;-84
2021/11/07 05:01:25;;;;;;;1.60;1.50;;;11.90;99.90;;;;;;6125097;23;21043;-86
2021/11/07 05:03:52;;;;;;;1.70;1.60;;;11.90;99.90;;;;;;6125196;23;20816;-88
2021/11/07 05:06:22;;;;;;;1.63;1.53;;;11.90;99.90;;;;;;6125808;23;20502;-85
2021/11/07 05:08:49;;;;;;;1.47;1.37;;;11.90;99.90;;;;;;6148063;23;20462;-85
2021/11/07 05:11:16;;;;;;;1.47;1.37;;;11.90;99.90;;;;;;6127782;23;21460;-86
2021/11/07 05:13:43;;;;;;;2.43;1.67;;;12.00;99.90;;;;;;6125174;23;20433;-86
2021/11/07 05:16:17;;;;;;;1.70;1.60;;;12.20;99.90;;;;;;6128388;23;20757;-88
2021/11/07 05:18:46;;;;;;;1.80;1.70;;;12.00;99.90;;;;;;6126296;23;20436;-86
2021/11/07 05:21:13;;;;;;;2.17;1.37;;;12.00;99.90;;;;;;6127999;23;21365;-86
2021/11/07 05:23:41;;;;;;;1.93;1.83;;;11.90;99.90;;;;;;6127956;23;20475;-83
2021/11/07 05:26:08;;;;;;;1.93;1.83;;;12.20;99.90;;;;;;6126453;23;20429;-83
2021/11/07 05:28:38;;;;;;;1.57;1.47;;;12.20;99.90;;;;;;6154261;23;20469;-85
2021/11/07 05:31:05;;;;;;;1.97;1.73;;;12.10;99.90;;;;;;6128947;23;20922;-86
2021/11/07 05:33:31;;;;;;;2.10;1.77;;;12.00;99.90;;;;;;6127831;23;20902;-86
2021/11/07 05:35:58;;;;;;;1.47;1.37;;;11.90;99.90;;;;;;6127269;23;20443;-85
2021/11/07 05:38:25;;;;;;;1.90;1.80;;;11.90;99.90;;;;;;6129590;23;21399;-85
2021/11/07 05:40:53;;;;;;;2.00;1.90;;;11.90;99.90;;;;;;6127271;23;20418;-86
2021/11/07 05:43:21;;;;;;;2.10;1.90;;;11.90;99.90;;;;;;6126100;23;20912;-85
2021/11/07 05:45:48;;;;;;;2.50;2.30;;;11.90;99.90;;;;;;6130599;23;20406;-86
2021/11/07 05:48:16;;;;;;;2.83;2.13;;;11.90;99.90;;;;;;6154256;23;20438;-86
2021/11/07 05:50:44;;;;;;;2.07;1.97;;;11.90;99.90;;;;;;6136673;23;20466;-87
2021/11/07 05:53:11;;;;;;;2.03;1.93;;;12.00;99.90;;;;;;6148695;23;20420;-87
2021/11/07 05:55:37;;;;;;;2.35;2.00;;;12.00;99.90;;;;;;6155122;23;20483;-87
2021/11/07 05:58:04;;;;;;;3.70;2.53;;;12.00;99.90;;;;;;6180864;23;20452;-88
2021/11/07 06:00:32;;;;;;;2.47;2.30;;;12.00;99.90;;;;;;6147698;23;21013;-85
2021/11/07 06:03:01;;;;;;;2.73;2.30;;;12.00;99.90;;;;;;6156290;23;20421;-85
2021/11/07 06:05:28;;;;;;;2.53;1.77;;;12.00;99.90;;;;;;6130440;23;20463;-85
2021/11/07 06:07:57;;;;;;;2.70;2.50;;;11.90;99.90;;;;;;6123213;23;21040;-84
2021/11/07 06:10:23;;;;;;;2.70;2.50;;;11.90;99.90;;;;;;6131783;23;20411;-86
2021/11/07 06:12:50;;;;;;;1.97;1.87;;;11.90;99.90;;;;;;6135411;23;20409;-85
2021/11/07 06:15:17;;;;;;;3.17;2.67;;;11.90;99.90;;;;;;6137332;23;20416;-85
2021/11/07 06:17:44;;;;;;;2.50;2.30;;;11.90;99.90;;;;;;6133067;23;20536;-86
2021/11/07 06:20:13;;;;;;;2.90;2.70;;;11.90;99.90;;;;;;6128995;23;20415;-84
2021/11/07 06:22:55;;;;;;;2.77;2.57;;;11.90;99.90;;;;;;6132879;23;20405;-86
2021/11/07 06:25:28;;;;;;;2.57;2.17;;;11.90;99.90;;;;;;6128514;23;20410;-84
2021/11/07 06:27:56;;;;;;;3.60;2.67;;;11.90;99.90;;;;;;6155706;23;20441;-85
2021/11/07 06:30:29;;;;;;;3.70;2.50;;;11.90;99.90;;;;;;6130428;23;20421;-86
2021/11/07 06:33:11;;;;;;;3.20;2.30;;;11.90;99.90;;;;;;6156148;23;20425;-84
2021/11/07 06:35:50;;;;;;;2.70;2.50;;;11.90;99.90;;;;;;6152719;23;20430;-84
2021/11/07 06:38:17;;;;;;;2.93;2.77;;;12.00;99.90;;;;;;6127399;23;20426;-84
2021/11/07 06:40:47;;;;;;;3.47;3.07;;;12.30;99.90;;;;;;6154972;23;20899;-84
2021/11/07 06:43:26;;;;;;;3.73;2.73;;;12.30;99.90;;;;;;6126994;23;20403;-85
2021/11/07 06:46:05;;;;;;;2.53;2.33;;;12.20;99.90;;;;;;6130154;23;20403;-86
2021/11/07 06:48:38;;;;;;;2.60;2.40;;;12.10;99.90;;;;;;6151729;23;20533;-86
2021/11/07 06:51:05;;;;;;;2.17;2.07;;;12.10;99.90;;;;;;6156345;23;20407;-86
2021/11/07 06:53:37;;;;;;;2.57;2.30;;;12.00;99.90;;;;;;6157094;23;21024;-85
2021/11/07 06:56:11;;;;;;;3.73;2.87;;;12.00;99.90;;;;;;6126863;23;20410;-85
2021/11/07 06:59:14;;;;;;;3.30;2.80;;;12.00;99.90;;;;;;6128662;23;20430;-84
2021/11/07 07:01:41;;;;;;;2.30;2.10;;;12.00;99.90;;;;;;6157886;23;20421;-84
2021/11/07 07:04:07;;;;;;;2.63;2.43;;;12.00;99.90;;;;;;6160095;23;20417;-84
2021/11/07 07:06:35;;;;;;;5.10;3.20;;;12.10;99.90;;;;;;6141307;23;20821;-85
2021/11/07 07:12:14;;;;;;;3.60;2.40;;;12.00;99.90;;;;;;6155730;23;20474;-84
2021/11/07 07:21:07;;;;;;;3.00;2.70;;;12.10;99.90;;;;;;6066479;23;20816;-84
2021/11/07 07:30:34;;;;;;;3.60;3.00;;;12.10;99.90;;;;;;6069443;23;20472;-85
2021/11/07 07:39:37;;;;;;;5.00;3.00;;;12.00;99.90;;;;;;6193863;23;20510;-85
2021/11/07 07:42:20;;;;;;;3.07;2.70;;;12.00;99.90;;;;;;6163287;23;20505;-86
2021/11/07 07:44:52;;;;;;;4.43;3.03;;;12.00;99.90;;;;;;6164169;23;20401;-84
2021/11/07 07:47:43;;;;;;;3.60;2.90;;;12.00;99.90;;;;;;6180275;23;20452;-83
2021/11/07 07:50:16;;;;;;;3.70;3.50;;;12.00;99.90;;;;;;6158265;23;20400;-85
2021/11/07 07:52:45;;;;;;;2.60;2.40;;;12.00;99.90;;;;;;6133023;23;20410;-85
2021/11/07 07:55:16;;;;;;;2.87;2.67;;;11.90;99.90;;;;;;6131774;23;20424;-84
2021/11/07 07:57:50;;;;;;;3.10;2.83;;;11.90;99.90;;;;;;6156702;23;20456;-85
2021/11/07 08:00:25;;;;;;;3.47;3.13;;;11.90;99.90;;;;;;6130898;23;20413;-84
2021/11/07 08:03:04;;;;;;;4.67;3.30;;;11.90;99.90;;;;;;6156043;23;20903;-86
2021/11/07 08:05:46;;;;;;;3.60;3.30;;;11.90;99.90;;;;;;6128806;23;20742;-85
2021/11/07 08:08:22;;;;;;;2.93;2.57;;;11.90;99.90;;;;;;6129924;23;20550;-86
2021/11/07 08:10:49;;;;;;;3.00;2.80;;;11.90;99.90;;;;;;6129090;23;20521;-87
2021/11/07 08:13:15;;;;;;;3.10;2.80;;;12.00;99.90;;;;;;6155338;23;20446;-85
2021/11/07 08:15:42;;;;;;;3.40;3.10;;;12.10;99.90;;;;;;6158022;23;20421;-85
2021/11/07 08:18:09;;;;;;;4.20;3.57;;;12.10;99.90;;;;;;6155468;23;20453;-86
2021/11/07 08:20:42;;;;;;;4.07;3.00;;;12.20;99.90;;;;;;6130243;23;20402;-85
2021/11/07 08:23:12;;;;;;;9.40;8.47;;;12.20;99.90;;;;;;6154649;23;20405;-83
2021/11/07 08:25:39;;;;;;;3.80;3.23;;;12.20;99.90;;;;;;6136563;23;20406;-84
2021/11/07 08:28:21;;;;;;;6.40;5.07;;;12.20;99.90;;;;;;6158077;23;20441;-85
2021/11/07 08:34:46;;;;;;;4.57;4.17;;;12.20;99.90;;;;;;6096545;23;20406;-83
2021/11/07 08:37:16;;;;;;;6.00;3.60;;;12.30;99.90;;;;;;6131383;23;20445;-86
2021/11/07 08:39:51;;;;;;;5.07;3.80;;;12.30;99.90;;;;;;6128778;23;20418;-86
2021/11/07 08:42:29;;;;;;;4.20;3.50;;;12.20;99.90;;;;;;6129785;23;20422;-86
2021/11/07 09:02:33;;;;;;;5.00;3.83;;;12.30;99.90;;;;;;6063022;23;20971;-84
2021/11/07 09:05:07;;;;;;;3.63;3.40;;;12.30;99.90;;;;;;6066653;23;20484;-85
2021/11/07 09:10:09;;;;;;;6.50;4.27;;;12.30;99.90;;;;;;6085813;23;20488;-87
2021/11/07 09:12:37;;;;;;;9.27;5.17;;;12.30;99.90;;;;;;6087012;23;20469;-87
2021/11/07 09:15:07;;;;;;;5.33;4.40;;;12.40;99.90;;;;;;6064765;23;20421;-85
2021/11/07 09:17:34;;;;;;;5.43;4.37;;;12.40;99.90;;;;;;6073178;23;20452;-85
2021/11/07 09:20:06;;;;;;;6.07;4.13;;;12.40;99.90;;;;;;6065491;23;20413;-85
2021/11/07 09:22:58;;;;;;;5.30;3.40;;;12.40;99.90;;;;;;6065528;23;20430;-85
2021/11/07 09:25:24;;;;;;;5.50;3.50;;;12.40;99.90;;;;;;6067208;23;20423;-84
2021/11/07 09:27:58;;;;;;;6.47;3.83;;;12.40;99.90;;;;;;6135610;23;21027;-86
2021/11/07 09:30:43;;;;;;;6.77;4.33;;;12.40;99.90;;;;;;6157284;23;20405;-85
2021/11/07 09:33:24;;;;;;;9.83;4.63;;;12.40;99.90;;;;;;6131772;23;21068;-85
2021/11/07 09:38:47;;;;;;;5.80;2.90;;;12.50;99.90;;;;;;6151233;23;20464;-85
2021/11/07 09:44:24;;;;;;;7.47;3.87;;;12.60;99.90;;;;;;6155672;23;20413;-85
2021/11/07 09:46:55;;;;;;;5.57;3.40;;;12.60;99.90;;;;;;6156850;23;20450;-83
2021/11/07 09:49:27;;;;;;;8.03;3.10;;;12.60;99.90;;;;;;6128109;23;20433;-85
2021/11/07 09:52:13;;;;;;;4.20;2.50;;;12.70;99.90;;;;;;6106031;23;20410;-84
2021/11/07 09:54:47;;;;;;;6.70;2.50;;;12.70;99.90;;;;;;6104503;23;20433;-84
2021/11/07 09:57:29;;;;;;;9.10;3.70;;;12.90;99.90;;;;;;6136626;23;20450;-86
2021/11/07 10:00:02;;;;;;;10.53;3.60;;;13.10;99.90;;;;;;6107889;23;20420;-87
2021/11/07 10:02:51;;;;;;;7.30;3.23;;;13.20;99.90;;;;;;6131516;23;20452;-86
2021/11/07 10:05:42;;;;;;;16.17;6.83;;;13.30;99.90;;;;;;6107534;23;20412;-85
2021/11/07 10:08:13;;;;;;;8.07;3.63;;;13.30;99.90;;;;;;6131910;23;20803;-84
2021/11/07 10:20:57;;;;;;;8.60;3.97;;;13.40;99.90;;;;;;6035630;23;20449;-84
2021/11/07 10:23:31;;;;;;;9.90;3.90;;;13.50;99.90;;;;;;6036406;23;20402;-86
2021/11/07 10:26:24;;;;;;;6.53;2.70;;;13.40;99.90;;;;;;6142157;23;20898;-84
2021/11/07 10:28:56;;;;;;;6.50;2.93;;;13.40;99.90;;;;;;6134686;23;21322;-87
2021/11/07 10:31:37;;;;;;;11.30;3.40;;;13.30;99.90;;;;;;6131560;23;20410;-84
2021/11/07 10:42:59;;;;;;;7.33;3.10;;;13.00;99.90;;;;;;6159940;23;20391;-85
2021/11/07 10:45:59;;;;;;;6.97;2.87;;;13.00;99.90;;;;;;6134288;23;20391;-85
2021/11/07 10:54:25;;;;;;;7.00;2.90;;;13.00;99.90;;;;;;6134416;23;20918;-84
2021/11/07 10:57:15;;;;;;;8.33;3.67;;;13.00;99.90;;;;;;6156691;23;20498;-83
2021/11/07 11:00:14;;;;;;;7.10;3.30;;;13.00;99.90;;;;;;6156169;23;20427;-85
2021/11/07 11:02:42;;;;;;;9.40;3.40;;;12.90;99.90;;;;;;6154997;23;20416;-85
2021/11/07 11:05:16;;;;;;;9.77;3.20;;;12.90;99.90;;;;;;6152203;23;20406;-83
2021/11/07 11:08:22;;;;;;;9.37;3.60;;;12.90;99.90;;;;;;6127900;23;20504;-85
2021/11/07 11:16:26;;;;;;;9.37;3.90;;;12.90;99.90;;;;;;6156896;23;20414;-83
2021/11/07 11:19:41;;;;;;;9.60;3.20;;;12.90;99.90;;;;;;6131701;23;20457;-85
2021/11/07 11:28:00;;;;;;;7.30;3.23;;;12.80;99.70;;;;;;6155268;23;20457;-84
2021/11/07 11:31:02;;;;;;;5.13;2.47;;;12.70;99.80;;;;;;6156132;23;20483;-85
2021/11/07 11:33:31;;;;;;;10.83;3.13;;;12.70;99.30;;;;;;6154891;23;20423;-83
2021/11/07 11:36:16;;;;;;;9.23;2.83;;;12.70;99.20;;;;;;6156817;23;20418;-84
2021/11/07 11:38:50;;;;;;;6.53;3.00;;;12.70;98.70;;;;;;6134923;23;20541;-83
2021/11/07 11:43:47;;;;;;;10.50;2.90;;;12.70;98.80;;;;;;6158405;23;20417;-85
2021/11/07 11:46:23;;;;;;;5.70;2.80;;;12.70;98.70;;;;;;6159733;23;20394;-84
2021/11/07 11:51:57;;;;;;;8.40;3.20;;;12.70;98.60;;;;;;6181566;23;20402;-86
2021/11/07 12:03:20;;;;;;;5.30;2.70;;;13.00;98.10;;;;;;6071073;23;20908;-85
2021/11/07 12:05:55;;;;;;;12.10;2.63;;;13.00;97.80;;;;;;6126993;23;20925;-83
2021/11/07 12:08:59;;;;;;;7.87;2.40;;;13.00;97.70;;;;;;6133480;23;20509;-87
2021/11/07 12:11:30;;;;;;;12.50;3.90;;;13.00;97.60;;;;;;6134936;23;20446;-86
2021/11/07 12:14:19;;;;;;;6.03;2.60;;;13.00;96.90;;;;;;6156067;23;20418;-85
2021/11/07 12:16:59;;;;;;;9.70;3.73;;;13.00;97.10;;;;;;6132313;23;20516;-85
2021/11/07 12:19:41;;;;;;;5.50;2.10;;;13.00;97.10;;;;;;6159495;23;20426;-83
2021/11/07 12:22:11;;;;;;;5.33;2.43;;;12.90;96.70;;;;;;6130907;23;20445;-83
2021/11/07 12:24:46;;;;;;;6.00;2.73;;;12.90;96.20;;;;;;6132569;23;20505;-85
2021/11/07 12:33:50;;;;;;;12.37;7.53;;;12.80;96.10;;;;;;6152796;23;20390;-84
2021/11/07 12:43:05;;;;;;;8.20;3.50;;;12.80;97.00;;;;;;6155168;23;20354;-84
2021/11/07 12:45:38;;;;;;;13.53;3.70;;;12.80;97.00;;;;;;6157460;23;20485;-84
2021/11/07 12:48:09;;;;;;;11.07;2.90;;;12.80;97.20;;;;;;6129731;23;20446;-86
2021/11/07 12:51:00;;;;;;;10.13;3.13;;;12.80;97.10;;;;;;6157783;23;20410;-83
2021/11/07 12:53:51;;;;;;;8.00;3.10;;;12.90;97.30;;;;;;6129759;23;20414;-85
2021/11/07 12:56:42;;;;;;;5.63;2.83;;;12.90;97.10;;;;;;6135867;23;20916;-84
2021/11/07 12:59:29;;;;;;;6.00;2.77;;;13.00;97.10;;;;;;6156220;23;20515;-86
2021/11/07 13:02:18;;;;;;;8.40;2.80;;;13.10;96.90;;;;;;6127711;23;20510;-84
2021/11/07 13:09:35;;;;;;;;;;;;;;;;;;;;;
2021/11/07 13:22:09;;;;;;;7.13;3.10;;;13.40;96.50;;;;;;6154031;23;20993;-84
2021/11/07 13:27:29;;;;;;;10.03;2.90;;;13.30;96.40;;;;;;6155421;23;20454;-85
2021/11/07 13:30:15;;;;;;;8.87;2.73;;;13.40;96.10;;;;;;6127998;23;20451;-84
2021/11/07 13:32:51;;;;;;;6.73;2.80;;;13.40;96.10;;;;;;6137538;23;20601;-84
2021/11/07 13:35:28;;;;;;;9.30;2.40;;;13.40;94.90;;;;;;6127610;23;21148;-87
2021/11/07 13:38:12;;;;;;;9.93;3.10;;;13.30;94.60;;;;;;6147297;23;20528;-83
2021/11/07 13:40:40;;;;;;;8.90;2.70;;;13.30;94.30;;;;;;6131972;23;20389;-85
2021/11/07 13:43:28;;;;;;;11.20;2.77;;;13.30;94.30;;;;;;6119902;23;20406;-84
2021/11/07 13:45:56;;;;;;;8.10;3.20;;;13.20;94.50;;;;;;6156453;23;20406;-84
2021/11/07 13:48:29;;;;;;;5.93;3.00;;;13.30;94.60;;;;;;6129006;23;20716;-84
2021/11/07 13:50:58;;;;;;;8.47;2.70;;;13.20;94.60;;;;;;6129125;23;20938;-84
2021/11/07 13:53:29;;;;;;;9.33;2.70;;;13.20;94.70;;;;;;6162025;23;20414;-85
2021/11/07 13:55:59;;;;;;;6.17;2.23;;;13.20;94.70;;;;;;6169128;23;20470;-83
2021/11/07 13:58:29;;;;;;;6.40;3.00;;;13.20;94.70;;;;;;6138052;23;20515;-85
2021/11/07 14:00:59;;;;;;;6.83;3.07;;;13.20;94.90;;;;;;6137199;23;20455;-85
2021/11/07 14:03:27;;;;;;;7.00;2.57;;;13.20;94.90;;;;;;6133611;23;20424;-84
2021/11/07 14:06:19;;;;;;;7.67;2.73;;;13.30;94.90;;;;;;6130782;23;20819;-85
2021/11/07 14:08:48;;;;;;;10.20;3.70;;;13.20;94.80;;;;;;6130236;23;20441;-86
2021/11/07 14:11:21;;;;;;;9.50;3.40;;;13.20;95.00;;;;;;6158608;23;20828;-84
2021/11/07 14:13:52;;;;;;;6.30;2.27;;;13.20;95.00;;;;;;6157944;23;20609;-83
2021/11/07 14:16:37;;;;;;;11.70;3.03;;;13.20;95.10;;;;;;6130171;23;20387;-84
2021/11/07 14:19:07;;;;;;;7.40;2.63;;;13.10;95.10;;;;;;6131333;23;20438;-83
2021/11/07 14:21:38;;;;;;;10.07;4.53;;;13.00;95.30;;;;;;6158905;23;20406;-83
2021/11/07 14:24:07;;;;;;;6.77;3.27;;;13.00;95.50;;;;;;6161352;23;20436;-84
2021/11/07 14:26:45;;;;;;;11.77;3.37;;;13.00;95.50;;;;;;6130385;23;20426;-83
2021/11/07 14:34:43;;;;;;;6.10;2.23;;;12.80;95.50;;;;;;6154062;23;20456;-84
2021/11/07 14:37:19;;;;;;;9.30;3.30;;;12.80;95.60;;;;;;6154356;23;20483;-84
2021/11/07 14:40:10;;;;;;;9.57;5.87;;;12.80;95.70;;;;;;6132072;23;20972;-84
2021/11/07 15:05:28;;;;;;;7.40;3.20;;;12.40;95.90;;;;;;6158917;23;20453;-86
2021/11/07 15:08:35;;;;;;;11.77;3.23;;;12.40;96.00;;;;;;6130202;23;20490;-85
2021/11/07 15:11:12;;;;;;;11.33;3.00;;;12.40;95.90;;;;;;6068049;23;20453;-84
2021/11/07 15:13:50;;;;;;;9.87;3.23;;;12.40;95.70;;;;;;6127819;23;20413;-83
2021/11/07 15:19:34;;;;;;;8.57;3.07;;;12.30;95.90;;;;;;6152286;23;20459;-86
2021/11/07 15:22:20;;;;;;;7.67;2.50;;;12.20;96.00;;;;;;6130781;23;20395;-85
2021/11/07 15:24:47;;;;;;;12.80;2.77;;;12.20;96.00;;;;;;6165744;23;20485;-83
2021/11/07 15:27:21;;;;;;;10.30;4.13;;;12.20;96.10;;;;;;6129356;23;20398;-84
2021/11/07 15:29:58;;;;;;;10.80;3.23;;;12.20;96.30;;;;;;6153982;23;20395;-86
2021/11/07 15:32:30;;;;;;;9.17;3.60;;;12.10;96.20;;;;;;6127511;23;20423;-84
2021/11/07 15:34:58;;;;;;;11.27;3.10;;;12.10;96.20;;;;;;6129293;23;20413;-85
2021/11/07 15:37:28;;;;;;;7.30;3.43;;;12.10;96.40;;;;;;6155515;23;20873;-85
2021/11/07 15:40:00;;;;;;;11.50;2.80;;;12.00;96.30;;;;;;6129683;23;20474;-84
2021/11/07 15:42:30;;;;;;;8.67;2.70;;;12.00;96.10;;;;;;6129089;23;20404;-85
2021/11/07 15:45:09;;;;;;;10.23;2.60;;;12.00;96.10;;;;;;6136496;23;20411;-85
2021/11/07 15:54:53;;;;;;;8.40;3.10;;;12.00;94.90;;;;;;6046271;23;20448;-85
2021/11/07 16:03:47;;;;;;;10.53;2.83;;;12.00;94.80;;;;;;6135928;23;20426;-84
2021/11/07 16:09:59;;;;;;;10.53;3.27;;;12.10;95.20;;;;;;6159850;23;20425;-85
2021/11/07 16:12:40;;;;;;;6.20;3.33;;;12.00;95.40;;;;;;6127819;23;20395;-84
2021/11/07 16:15:41;;;;;;;10.83;2.80;;;12.00;95.60;;;;;;6137006;23;20453;-85
2021/11/07 16:18:08;;;;;;;7.40;3.30;;;12.00;95.90;;;;;;6155794;23;20704;-85
2021/11/07 16:20:35;;;;;;;9.37;3.80;;;12.00;96.10;;;;;;6155448;23;20438;-85
2021/11/07 16:23:05;;;;;;;14.50;3.13;;;12.00;96.20;;;;;;6156347;23;20461;-84
2021/11/07 16:25:34;;;;;;;12.10;2.87;;;12.00;96.30;;;;;;6156947;23;20721;-86
2021/11/07 16:28:02;;;;;;;11.80;3.97;;;12.00;96.40;;;;;;6130895;23;20468;-84
2021/11/07 16:30:33;;;;;;;7.50;2.30;;;11.90;96.60;;;;;;6123514;23;20410;-85
2021/11/07 16:33:21;;;;;;;11.93;3.60;;;11.90;96.70;;;;;;6157393;23;20490;-86
2021/11/07 16:35:57;;;;;;;7.33;3.03;;;11.90;96.80;;;;;;6156495;23;20788;-85
2021/11/07 16:41:04;;;;;;;10.53;3.97;;;11.90;97.20;;;;;;6155488;23;20425;-85
2021/11/07 16:43:35;;;;;;;12.90;3.67;;;11.80;97.20;;;;;;6131944;23;20422;-84
2021/11/07 16:46:06;;;;;;;9.17;3.90;;;11.80;97.10;;;;;;6141597;23;20414;-86
2021/11/07 16:48:35;;;;;;;7.50;2.97;;;11.80;97.10;;;;;;6139343;23;20485;-85
2021/11/07 16:51:08;;;;;;;6.67;2.70;;;11.80;97.20;;;;;;6135449;23;20395;-85
2021/11/07 16:53:44;;;;;;;9.87;3.90;;;11.80;97.20;;;;;;6132821;23;20390;-84
2021/11/07 16:56:12;;;;;;;11.43;4.07;;;11.80;97.20;;;;;;6156260;23;21047;-85
2021/11/07 17:01:32;;;;;;;12.30;3.47;;;11.80;97.30;;;;;;6164026;23;20400;-86
2021/11/07 17:04:19;;;;;;;7.40;2.70;;;11.70;97.30;;;;;;6129422;23;20919;-86
2021/11/07 17:09:41;;;;;;;10.13;3.13;;;11.70;97.60;;;;;;6156139;23;20996;-86
2021/11/07 17:12:15;;;;;;;9.83;3.93;;;11.70;97.60;;;;;;6128098;23;20828;-87
2021/11/07 17:14:44;;;;;;;15.30;4.20;;;11.70;97.70;;;;;;6123179;23;20946;-86